Time;durP1;ratioP1;P1;durP2;ratioP2;P2;SDS_P1;SDS_P2;PMS_P1;PMS_P2;Temp;Humidity;BMP_temperature;BMP_pressure;BME280_temperature;BME280_humidity;BME280_pressure;Samples;Min_cycle;Max_cycle;Signal;HPM_P1;HPM_P2
2021/05/01 03:30:45;;;;;;;54.93;34.83;;;;;;;11.69;61.30;98385.63;8177146;23;20288;-81
2021/05/01 03:34:06;;;;;;;67.13;37.83;;;;;;;11.64;61.00;98396.28;6894359;28;20212;-81
2021/05/01 03:37:27;;;;;;;68.43;38.97;;;;;;;11.92;60.06;98391.22;6895459;28;20566;-81
2021/05/01 03:40:48;;;;;;;71.83;39.73;;;;;;;11.19;60.50;98337.25;6896766;28;20228;-81
2021/05/01 03:44:09;;;;;;;68.50;38.53;;;;;;;11.80;60.02;98373.28;6898508;28;20216;-80
2021/05/01 03:47:34;;;;;;;66.27;38.63;;;;;;;11.87;60.39;98372.16;6898453;28;20464;-80
2021/05/01 03:50:55;;;;;;;59.77;38.47;;;;;;;11.69;60.22;98393.72;6896537;28;20220;-80
2021/05/01 03:54:17;;;;;;;62.80;36.90;;;;;;;11.66;60.18;98394.19;6896383;28;20205;-80
2021/05/01 03:57:38;;;;;;;71.40;42.53;;;;;;;11.64;59.77;98398.16;6896574;28;20243;-80
2021/05/01 04:00:59;;;;;;;68.47;37.23;;;;;;;11.17;60.36;98394.13;6895695;28;20675;-80
2021/05/01 04:04:21;;;;;;;67.37;41.00;;;;;;;11.30;60.80;98394.06;6896062;28;20571;-80
2021/05/01 04:07:42;;;;;;;66.33;37.23;;;;;;;11.51;60.06;98388.25;6896194;28;20209;-79
2021/05/01 04:11:03;;;;;;;62.97;38.67;;;;;;;11.07;61.13;98398.38;6895026;28;20252;-80
2021/05/01 04:14:25;;;;;;;62.53;37.63;;;;;;;11.15;60.83;98404.34;6895783;28;20212;-80
2021/05/01 04:17:47;;;;;;;70.37;38.77;;;;;;;11.18;61.48;98421.97;6895795;28;20207;-80
2021/05/01 04:21:09;;;;;;;58.87;34.80;;;;;;;11.30;60.78;98363.53;6895139;28;20233;-80
2021/05/01 04:24:31;;;;;;;61.03;34.43;;;;;;;11.75;59.63;98405.53;6895725;28;20207;-80
2021/05/01 04:27:52;;;;;;;692.70;67.33;;;;;;;10.89;60.54;98385.63;6894963;28;20216;-80
2021/05/01 04:31:14;;;;;;;92.53;38.23;;;;;;;10.64;62.60;98395.50;6893064;28;20232;-80
2021/05/01 04:34:35;;;;;;;89.80;39.77;;;;;;;10.84;63.08;98428.59;6893334;28;20219;-80
2021/05/01 04:37:57;;;;;;;82.30;40.60;;;;;;;10.96;63.17;98428.72;6898651;28;20204;-80
2021/05/01 04:41:18;;;;;;;81.97;39.90;;;;;;;11.20;62.25;98409.91;6894811;28;20236;-79
2021/05/01 04:44:39;;;;;;;66.27;37.43;;;;;;;11.53;62.24;98412.34;6894866;28;20267;-80
2021/05/01 04:48:00;;;;;;;85.10;46.67;;;;;;;11.79;61.57;98412.13;6883448;28;20300;-80
2021/05/01 04:51:21;;;;;;;67.43;37.13;;;;;;;11.56;61.18;98411.91;6898420;28;20235;-80
2021/05/01 04:54:43;;;;;;;67.13;36.20;;;;;;;11.68;60.92;98416.38;6897878;28;20212;-80
2021/05/01 04:58:04;;;;;;;59.80;34.13;;;;;;;11.51;60.53;98419.84;6896786;28;20228;-81
2021/05/01 05:01:26;;;;;;;63.93;36.40;;;;;;;11.20;60.61;98401.81;6893535;28;20240;-80
2021/05/01 05:04:47;;;;;;;73.77;37.17;;;;;;;11.02;61.29;98414.38;6895006;28;20214;-80
2021/05/01 05:08:08;;;;;;;72.07;36.83;;;;;;;10.50;62.42;98376.94;6895925;28;20570;-80
2021/05/01 05:11:32;;;;;;;71.77;37.60;;;;;;;11.13;62.22;98419.09;6893445;28;20221;-80
2021/05/01 05:14:56;;;;;;;65.23;37.40;;;;;;;11.26;62.10;98408.19;6893063;28;20808;-80
2021/05/01 05:18:17;;;;;;;59.63;36.23;;;;;;;11.69;61.37;98395.63;6895537;28;20235;-80
2021/05/01 05:21:38;;;;;;;60.67;35.50;;;;;;;11.37;61.59;98407.47;6894685;28;20621;-80
2021/05/01 05:24:59;;;;;;;55.03;34.97;;;;;;;11.55;61.40;98356.25;6899818;28;20219;-80
2021/05/01 05:28:21;;;;;;;55.57;35.23;;;;;;;11.97;60.49;98402.19;6899587;28;20205;-80
2021/05/01 05:31:44;;;;;;;57.43;35.77;;;;;;;11.99;61.19;98400.06;6899301;28;20236;-80
2021/05/01 05:35:06;;;;;;;57.37;35.20;;;;;;;12.17;61.02;98399.28;6899776;28;20291;-80
2021/05/01 05:38:27;;;;;;;60.90;36.23;;;;;;;12.29;60.88;98402.88;6900056;28;20216;-80
2021/05/01 05:41:48;;;;;;;72.30;39.93;;;;;;;12.35;61.13;98413.63;6894921;28;20236;-80
2021/05/01 05:45:11;;;;;;;67.23;39.73;;;;;;;12.51;61.41;98407.59;6898496;28;20194;-80
2021/05/01 05:48:32;;;;;;;60.93;37.67;;;;;;;12.27;60.55;98397.69;6879636;28;20212;-79
2021/05/01 05:51:53;;;;;;;70.43;38.37;;;;;;;12.19;61.72;98360.16;6887483;28;20236;-80
2021/05/01 05:55:15;;;;;;;70.33;39.97;;;;;;;12.50;61.46;98386.19;6903712;28;20212;-80
2021/05/01 05:58:36;;;;;;;67.97;40.97;;;;;;;12.50;61.41;98349.16;6898307;28;20212;-80
2021/05/01 06:01:59;;;;;;;68.47;38.83;;;;;;;12.96;60.29;98364.78;6895896;28;20237;-80
2021/05/01 06:05:22;;;;;;;57.67;38.00;;;;;;;13.59;59.66;98379.38;6873233;28;20217;-79
2021/05/01 06:08:44;;;;;;;55.73;36.03;;;;;;;13.15;57.83;98386.13;6872741;28;20289;-80
2021/05/01 06:12:06;;;;;;;51.70;33.83;;;;;;;13.62;58.68;98381.66;6872367;28;20225;-80
2021/05/01 06:15:27;;;;;;;61.23;43.47;;;;;;;13.90;57.88;98392.59;6873208;28;20214;-80
2021/05/01 06:18:50;;;;;;;44.63;32.60;;;;;;;14.25;57.86;98377.97;6888854;28;20244;-80
2021/05/01 06:22:12;;;;;;;41.03;29.87;;;;;;;14.48;56.00;98379.81;6897226;28;20235;-80
2021/05/01 06:25:34;;;;;;;39.67;28.83;;;;;;;14.32;54.35;98370.53;6873522;28;20573;-80
2021/05/01 06:28:55;;;;;;;37.20;29.30;;;;;;;15.00;54.31;98371.38;6874165;28;20577;-80
2021/05/01 06:32:18;;;;;;;37.00;27.67;;;;;;;15.38;52.41;98373.41;6893844;28;20254;-79
2021/05/01 06:35:44;;;;;;;32.40;26.03;;;;;;;15.75;52.31;98360.97;6900538;28;20213;-80
2021/05/01 06:39:06;;;;;;;32.10;25.93;;;;;;;15.54;51.04;98359.00;6901816;28;20214;-80
2021/05/01 06:42:30;;;;;;;29.90;24.07;;;;;;;15.24;52.67;98375.59;6899598;28;20254;-79
2021/05/01 06:45:51;;;;;;;30.40;25.60;;;;;;;14.63;53.03;98372.00;6901170;28;20206;-80
2021/05/01 06:49:16;;;;;;;29.70;23.33;;;;;;;14.48;53.41;98394.22;6876595;28;20212;-80
2021/05/01 06:52:39;;;;;;;24.87;20.17;;;;;;;14.33;50.68;98353.19;6889421;28;20224;-81
2021/05/01 06:56:01;;;;;;;23.43;18.90;;;;;;;13.38;51.41;98379.94;6894192;28;20264;-80
2021/05/01 06:59:23;;;;;;;26.63;21.33;;;;;;;13.72;53.39;98388.13;6901569;28;20283;-80
2021/05/01 07:02:46;;;;;;;24.13;19.20;;;;;;;12.77;53.29;98399.16;6900233;28;20776;-81
2021/05/01 07:06:07;;;;;;;20.53;16.93;;;;;;;13.06;53.81;98390.25;6903296;28;20598;-81
2021/05/01 07:09:30;;;;;;;20.20;16.83;;;;;;;13.52;53.95;98394.94;6900876;28;20215;-80
2021/05/01 07:12:51;;;;;;;20.30;16.93;;;;;;;14.14;51.84;98392.34;6899034;28;20227;-80
2021/05/01 07:16:13;;;;;;;22.03;17.97;;;;;;;13.93;52.56;98376.66;6900710;28;20237;-80
2021/05/01 07:19:34;;;;;;;21.57;17.77;;;;;;;14.15;51.75;98372.28;6895793;28;20205;-80
2021/05/01 07:22:55;;;;;;;21.37;16.73;;;;;;;13.99;50.68;98391.19;6884592;28;20243;-80
2021/05/01 07:26:20;;;;;;;20.13;17.63;;;;;;;13.68;52.87;98370.69;6898738;28;20226;-80
2021/05/01 07:29:42;;;;;;;22.20;18.17;;;;;;;14.11;52.41;98356.75;6901176;28;20205;-82
2021/05/01 07:33:09;;;;;;;23.63;19.37;;;;;;;14.05;52.67;98350.38;6900374;28;20238;-80
2021/05/01 07:36:35;;;;;;;22.37;19.53;;;;;;;14.87;49.29;98316.53;6907073;28;20212;-80
2021/05/01 07:39:57;;;;;;;26.87;20.97;;;;;;;14.34;51.66;98341.28;6901179;28;20563;-80
2021/05/01 07:43:21;;;;;;;24.70;20.00;;;;;;;14.59;49.85;98344.50;6903236;28;20235;-80
2021/05/01 07:46:42;;;;;;;23.50;19.17;;;;;;;14.34;49.71;98316.88;6900723;28;20251;-85
2021/05/01 07:50:04;;;;;;;25.03;19.27;;;;;;;13.88;50.79;98333.22;6910389;28;20211;-80
2021/05/01 07:53:25;;;;;;;26.27;20.10;;;;;;;14.51;51.00;98354.94;6902278;28;20231;-80
2021/05/01 07:56:46;;;;;;;23.67;19.73;;;;;;;14.91;48.79;98356.53;6897418;28;20202;-81
2021/05/01 08:00:10;;;;;;;25.30;18.70;;;;;;;14.07;51.61;98364.53;6895368;28;20275;-82
2021/05/01 08:03:31;;;;;;;24.97;19.53;;;;;;;14.14;51.21;98361.69;6896354;28;20226;-81
2021/05/01 08:06:52;;;;;;;22.40;18.83;;;;;;;14.71;48.05;98364.28;6885897;28;20209;-82
2021/05/01 08:10:13;;;;;;;23.70;20.13;;;;;;;14.59;49.57;98319.25;6892532;28;20651;-82
2021/05/01 08:13:35;;;;;;;23.33;18.40;;;;;;;14.86;49.41;98359.13;6896458;28;20225;-82
2021/05/01 08:16:57;;;;;;;21.30;18.20;;;;;;;14.95;46.65;98265.41;6895481;28;20252;-83
2021/05/01 08:20:18;;;;;;;22.97;18.83;;;;;;;15.09;49.40;98337.31;6895274;28;20205;-81
2021/05/01 08:23:39;;;;;;;23.73;18.53;;;;;;;14.04;49.15;98226.75;6897162;28;20215;-82
2021/05/01 08:27:00;;;;;;;20.90;18.50;;;;;;;15.59;48.45;98361.81;6895755;28;20202;-81
2021/05/01 08:30:22;;;;;;;21.97;18.30;;;;;;;15.65;48.56;98358.94;6896641;28;20227;-81
2021/05/01 08:33:44;;;;;;;24.57;20.73;;;;;;;15.39;49.25;98366.91;6881308;28;20235;-81
2021/05/01 08:37:06;;;;;;;22.17;19.27;;;;;;;15.01;49.46;98370.28;6884476;28;20241;-84
2021/05/01 08:40:27;;;;;;;23.27;19.20;;;;;;;15.17;48.94;98365.94;6894403;28;20252;-82
2021/05/01 08:43:48;;;;;;;29.13;23.87;;;;;;;15.32;49.39;98368.91;6896662;28;20215;-83
2021/05/01 08:47:09;;;;;;;30.97;24.50;;;;;;;15.37;48.99;98366.31;6896812;28;20543;-85
2021/05/01 08:50:39;;;;;;;24.13;20.43;;;;;;;14.30;51.36;98360.97;6896253;28;20203;-82
2021/05/01 08:54:01;;;;;;;23.80;20.37;;;;;;;14.59;51.96;98363.50;6897590;28;20248;-81
2021/05/01 08:57:28;;;;;;;29.37;23.33;;;;;;;14.86;52.27;98352.91;6899753;28;20215;-82
2021/05/01 09:00:50;;;;;;;25.67;20.80;;;;;;;15.24;49.71;98353.03;6900495;28;20234;-83
2021/05/01 09:04:11;;;;;;;27.77;21.17;;;;;;;15.44;50.21;98358.81;6901225;28;20285;-85
2021/05/01 09:07:35;;;;;;;25.57;20.90;;;;;;;15.56;49.52;98349.53;6901207;28;20197;-83
2021/05/01 09:11:02;;;;;;;25.60;20.83;;;;;;;15.98;49.79;98377.09;6900469;28;20230;-81
2021/05/01 09:14:25;;;;;;;26.67;20.83;;;;;;;16.00;48.57;98375.78;6901289;28;20195;-80
2021/05/01 09:17:47;;;;;;;35.83;30.33;;;;;;;16.03;48.78;98366.28;6900146;28;20299;-80
2021/05/01 09:21:16;;;;;;;25.73;21.80;;;;;;;14.64;50.94;98376.34;6898686;28;20226;-81
2021/05/01 09:24:38;;;;;;;49.13;36.33;;;;;;;15.51;50.07;98363.03;6900034;28;20259;-80
2021/05/01 09:28:07;;;;;;;25.73;22.13;;;;;;;15.40;49.90;98365.84;6900436;28;20215;-80
2021/05/01 09:31:38;;;;;;;27.33;22.13;;;;;;;16.01;47.73;98376.59;6898021;28;20594;-79
2021/05/01 09:35:03;;;;;;;26.80;23.00;;;;;;;15.76;48.91;98370.78;6901111;28;20225;-80
2021/05/01 09:38:24;;;;;;;27.83;23.07;;;;;;;15.50;50.07;98366.00;6914706;28;20287;-79
2021/05/01 09:41:46;;;;;;;25.20;20.93;;;;;;;16.28;47.95;98353.03;6901799;28;20244;-81
2021/05/01 09:45:09;;;;;;;25.53;21.77;;;;;;;16.65;46.17;98338.59;6900648;28;20614;-79
2021/05/01 09:48:30;;;;;;;26.33;21.53;;;;;;;14.35;50.54;98334.81;6896541;28;20341;-79
2021/05/01 09:51:53;;;;;;;25.23;21.27;;;;;;;15.88;48.00;98342.44;6897832;28;20257;-79
2021/05/01 09:55:35;;;;;;;24.87;21.27;;;;;;;15.30;49.07;98333.03;6897963;28;20215;-79
2021/05/01 09:58:57;;;;;;;24.43;20.87;;;;;;;15.87;48.14;98334.53;6870628;28;20225;-78
2021/05/01 10:02:24;;;;;;;25.13;21.37;;;;;;;16.30;48.32;98323.69;6877403;28;20232;-79
2021/05/01 10:05:46;;;;;;;27.03;22.50;;;;;;;16.33;47.79;98331.34;6896246;28;20204;-81
2021/05/01 10:09:08;;;;;;;26.87;23.07;;;;;;;16.16;47.79;98322.41;6896637;28;20677;-81
2021/05/01 10:12:35;;;;;;;30.33;25.17;;;;;;;15.90;48.58;98317.69;6896184;28;20681;-80
2021/05/01 10:16:06;;;;;;;30.63;25.40;;;;;;;16.02;48.14;98312.97;6897529;28;20185;-80
2021/05/01 10:19:43;;;;;;;29.57;24.93;;;;;;;15.44;49.14;98323.50;6896757;28;20199;-80
2021/05/01 10:23:04;;;;;;;29.67;25.10;;;;;;;15.84;49.04;98324.97;6885449;28;20245;-80
2021/05/01 10:26:25;;;;;;;27.83;24.67;;;;;;;15.38;49.20;98313.63;6898010;28;20205;-80
2021/05/01 10:30:02;;;;;;;29.63;25.60;;;;;;;15.45;49.28;98309.69;6895367;28;20207;-81
2021/05/01 10:33:30;;;;;;;38.20;28.23;;;;;;;15.76;49.74;98314.50;6895755;28;20242;-80
2021/05/01 10:36:53;;;;;;;29.00;25.20;;;;;;;16.23;47.67;98315.69;6895050;28;20205;-80
2021/05/01 10:40:15;;;;;;;29.47;25.53;;;;;;;16.27;48.02;98321.47;6894552;28;20260;-81
2021/05/01 10:43:37;;;;;;;31.77;26.10;;;;;;;16.37;48.29;98321.59;6895997;28;20226;-79
2021/05/01 10:47:10;;;;;;;30.93;26.77;;;;;;;15.87;50.05;98297.28;6895536;28;20210;-80
2021/05/01 10:50:32;;;;;;;36.33;29.90;;;;;;;16.00;49.79;98305.09;6895340;28;20208;-80
2021/05/01 10:54:10;;;;;;;35.67;29.80;;;;;;;15.95;49.08;98296.03;6896063;28;20212;-80
2021/05/01 10:57:36;;;;;;;33.37;26.40;;;;;;;16.00;48.86;98304.25;6895712;28;20210;-79
2021/05/01 11:00:57;;;;;;;33.63;27.50;;;;;;;15.99;49.73;98303.41;6868600;28;20241;-79
2021/05/01 11:04:19;;;;;;;33.57;24.77;;;;;;;16.18;49.14;98314.81;6883492;28;20210;-80
2021/05/01 11:07:50;;;;;;;29.47;25.07;;;;;;;15.75;49.58;98312.06;6867610;28;20212;-80
2021/05/01 11:11:13;;;;;;;29.30;23.40;;;;;;;15.93;49.14;98292.75;6872304;28;20224;-81
2021/05/01 11:14:40;;;;;;;27.47;23.77;;;;;;;15.80;49.78;98309.41;6868379;28;20240;-79
2021/05/01 11:18:06;;;;;;;29.87;25.43;;;;;;;16.05;49.97;98305.13;6868361;28;20245;-80
2021/05/01 11:21:29;;;;;;;31.07;26.13;;;;;;;15.79;50.76;98296.88;6866217;28;20248;-78
2021/05/01 11:24:51;;;;;;;33.23;26.13;;;;;;;16.64;48.80;98301.53;6867776;28;20201;-80
2021/05/01 11:28:13;;;;;;;31.17;26.77;;;;;;;16.41;48.37;98284.66;6867552;28;20216;-79
2021/05/01 11:31:35;;;;;;;29.00;24.60;;;;;;;16.51;48.28;98303.84;6878775;28;20256;-79
2021/05/01 11:35:03;;;;;;;30.83;26.27;;;;;;;16.32;48.71;98310.63;6894081;28;20207;-79
2021/05/01 11:38:27;;;;;;;31.33;27.27;;;;;;;16.15;49.47;98297.09;6894062;28;20261;-79
2021/05/01 11:41:49;;;;;;;30.20;26.27;;;;;;;16.27;49.35;98303.25;6892749;28;20227;-79
2021/05/01 11:45:13;;;;;;;31.00;26.13;;;;;;;16.49;48.20;98276.88;6892788;28;20213;-79
2021/05/01 11:48:36;;;;;;;29.33;26.07;;;;;;;16.21;49.36;98298.81;6890715;28;20208;-81
2021/05/01 11:52:28;;;;;;;28.60;25.20;;;;;;;16.72;48.24;98295.66;6866158;28;20727;-79
2021/05/01 11:55:52;;;;;;;28.13;25.13;;;;;;;16.52;47.90;98276.34;6864024;28;20208;-79
2021/05/01 11:59:16;;;;;;;30.97;25.33;;;;;;;16.87;48.24;98276.72;6876500;28;20729;-81
2021/05/01 12:02:38;;;;;;;29.90;25.90;;;;;;;16.62;49.47;98281.09;6893365;28;20245;-78
2021/05/01 12:06:01;;;;;;;30.27;24.70;;;;;;;16.81;49.15;98294.09;6891297;28;20249;-79
2021/05/01 12:09:26;;;;;;;30.60;25.50;;;;;;;16.90;48.06;98264.50;6893137;28;20189;-79
2021/05/01 12:12:52;;;;;;;32.03;26.40;;;;;;;17.16;47.10;98275.34;6893149;28;20245;-80
2021/05/01 12:16:19;;;;;;;29.77;25.97;;;;;;;17.29;47.10;98250.38;6893006;28;20200;-78
2021/05/01 12:19:42;;;;;;;28.73;25.73;;;;;;;17.61;46.51;98262.09;6892563;28;20200;-78
2021/05/01 12:23:05;;;;;;;28.87;25.77;;;;;;;17.47;45.67;98260.94;6893287;28;20247;-78
2021/05/01 12:26:37;;;;;;;28.87;24.47;;;;;;;17.38;45.97;98243.41;6892712;28;20204;-78
2021/05/01 12:29:58;;;;;;;28.80;24.97;;;;;;;17.37;46.19;98266.28;6892531;28;20216;-80
2021/05/01 12:33:47;;;;;;;28.43;23.63;;;;;;;17.01;46.63;98261.63;6890793;28;20232;-79
2021/05/01 12:37:10;;;;;;;30.83;25.43;;;;;;;17.44;46.57;98245.09;6891795;28;20212;-78
2021/05/01 12:40:32;;;;;;;28.33;25.33;;;;;;;17.32;46.30;98230.81;6893459;28;20627;-79
2021/05/01 12:43:53;;;;;;;28.07;24.23;;;;;;;17.56;46.23;98242.16;6895067;28;20230;-78
2021/05/01 12:47:45;;;;;;;27.13;23.40;;;;;;;17.68;45.71;98242.81;6892986;28;20998;-78
2021/05/01 12:51:16;;;;;;;28.27;24.93;;;;;;;17.49;45.77;98239.69;6892445;28;20227;-79
2021/05/01 12:54:39;;;;;;;28.23;24.77;;;;;;;17.13;46.38;98234.19;6892388;28;20208;-77
2021/05/01 12:58:17;;;;;;;27.03;24.10;;;;;;;17.25;45.24;98222.03;6892893;28;20211;-77
2021/05/01 13:01:40;;;;;;;26.17;23.37;;;;;;;16.91;46.21;98226.13;6892066;28;20328;-76
2021/05/01 13:05:14;;;;;;;30.47;23.53;;;;;;;16.67;47.03;98240.31;6892493;28;20212;-77
2021/05/01 13:08:36;;;;;;;27.30;23.57;;;;;;;16.98;46.03;98239.53;6890355;28;20279;-78
2021/05/01 13:12:05;;;;;;;27.73;23.37;;;;;;;16.34;47.06;98232.31;6890723;28;20323;-78
2021/05/01 13:15:28;;;;;;;25.20;21.57;;;;;;;16.79;46.47;98232.81;6891945;28;20215;-79
2021/05/01 13:19:08;;;;;;;29.73;22.83;;;;;;;16.78;45.38;98233.88;6891196;28;20217;-78
2021/05/01 13:22:30;;;;;;;23.10;20.33;;;;;;;16.37;46.48;98231.81;6891049;28;20246;-77
2021/05/01 13:25:52;;;;;;;22.57;20.23;;;;;;;16.61;46.23;98231.28;6890762;28;20207;-77
2021/05/01 13:29:13;;;;;;;24.10;21.00;;;;;;;17.00;45.69;98210.97;6890378;28;20210;-78
2021/05/01 13:32:35;;;;;;;25.70;19.83;;;;;;;16.95;45.65;98221.81;6890203;28;20238;-80
2021/05/01 13:35:57;;;;;;;25.43;21.83;;;;;;;16.80;45.72;98224.38;6891397;28;20200;-79
2021/05/01 13:39:21;;;;;;;26.67;22.23;;;;;;;16.64;46.02;98217.16;6889560;28;20209;-79
2021/05/01 13:42:43;;;;;;;24.03;20.10;;;;;;;16.35;46.69;98204.03;6890398;28;20227;-78
2021/05/01 13:46:06;;;;;;;25.17;21.90;;;;;;;16.12;47.41;98201.59;6896853;28;20247;-76
2021/05/01 13:49:28;;;;;;;28.17;23.53;;;;;;;15.97;48.25;98168.78;6895855;28;20222;-79
2021/05/01 13:52:51;;;;;;;37.30;28.07;;;;;;;16.47;48.05;98181.09;6897155;28;20233;-78
2021/05/01 13:56:12;;;;;;;28.80;24.60;;;;;;;16.54;48.33;98183.56;6896995;28;20210;-78
2021/05/01 13:59:34;;;;;;;29.63;25.30;;;;;;;16.06;49.87;98191.75;6896522;28;20211;-78
2021/05/01 14:02:57;;;;;;;29.67;25.27;;;;;;;16.56;49.44;98176.78;6896341;28;20484;-78
2021/05/01 14:06:18;;;;;;;29.17;25.03;;;;;;;16.86;48.47;98181.69;6895291;28;20220;-78
2021/05/01 14:09:39;;;;;;;30.00;26.07;;;;;;;16.80;49.63;98177.28;6895868;28;20254;-78
2021/05/01 14:13:12;;;;;;;35.30;27.93;;;;;;;16.75;49.66;98171.81;6896639;28;20229;-78
2021/05/01 14:16:34;;;;;;;33.37;27.67;;;;;;;16.53;49.71;98185.50;6896760;28;20626;-78
2021/05/01 14:19:56;;;;;;;33.23;27.40;;;;;;;16.68;49.86;98177.44;6895283;28;20242;-78
2021/05/01 14:23:18;;;;;;;35.00;30.77;;;;;;;16.68;48.32;98177.44;6895157;28;20815;-78
2021/05/01 14:26:49;;;;;;;32.00;26.33;;;;;;;16.61;49.00;98179.56;6895927;28;20206;-79
2021/05/01 14:30:12;;;;;;;30.73;26.67;;;;;;;16.27;49.85;98180.03;6895405;28;20199;-79
2021/05/01 14:33:36;;;;;;;41.80;34.40;;;;;;;16.13;50.50;98168.72;6893685;28;20216;-78
2021/05/01 14:36:57;;;;;;;29.63;25.37;;;;;;;15.85;50.08;98151.78;6874002;28;20206;-78
2021/05/01 14:40:19;;;;;;;38.53;32.40;;;;;;;15.98;50.24;98160.38;6867578;28;20205;-78
2021/05/01 14:43:40;;;;;;;34.40;28.37;;;;;;;16.03;50.60;98162.31;6894578;28;20235;-79
2021/05/01 14:47:01;;;;;;;39.53;33.63;;;;;;;16.30;49.60;98165.91;6895678;28;20189;-79
2021/05/01 14:50:30;;;;;;;39.27;35.07;;;;;;;16.11;49.73;98162.69;6894618;28;20333;-79
2021/05/01 14:54:13;;;;;;;34.83;29.93;;;;;;;16.16;51.78;98167.41;6894934;28;20562;-78
2021/05/01 14:57:35;;;;;;;36.07;28.13;;;;;;;15.97;52.40;98152.47;6894612;28;20674;-78
2021/05/01 15:00:56;;;;;;;34.03;29.53;;;;;;;15.98;51.90;98130.47;6895147;28;20224;-80
2021/05/01 15:04:17;;;;;;;41.33;32.97;;;;;;;15.90;54.14;98138.25;6895199;28;20210;-78
2021/05/01 15:07:41;;;;;;;38.57;32.37;;;;;;;15.87;53.87;98136.06;6894359;28;20210;-79
2021/05/01 15:11:11;;;;;;;34.27;27.50;;;;;;;16.06;53.41;98159.13;6894035;28;20246;-80
2021/05/01 15:14:32;;;;;;;34.43;28.53;;;;;;;16.16;54.29;98167.41;6894614;28;20229;-79
2021/05/01 15:17:53;;;;;;;41.20;33.03;;;;;;;16.03;55.96;98163.16;6894431;28;20269;-80
2021/05/01 15:21:17;;;;;;;38.63;31.47;;;;;;;15.90;56.09;98163.56;6893489;28;20258;-79
2021/05/01 15:24:39;;;;;;;39.57;31.50;;;;;;;16.09;55.63;98161.31;6894352;28;20247;-79
2021/05/01 15:28:00;;;;;;;35.17;30.10;;;;;;;16.09;55.39;98155.88;6894278;28;20304;-79
2021/05/01 15:31:22;;;;;;;54.27;38.20;;;;;;;16.00;54.88;98150.09;6892950;28;20264;-80
2021/05/01 15:34:45;;;;;;;49.17;38.17;;;;;;;16.01;55.39;98142.75;6894030;28;20269;-79
2021/05/01 15:38:06;;;;;;;47.00;37.27;;;;;;;16.01;56.48;98140.84;6893580;28;20204;-79
2021/05/01 15:41:28;;;;;;;42.50;34.03;;;;;;;15.78;56.35;98121.28;6893520;28;20236;-80
2021/05/01 15:44:50;;;;;;;40.37;34.83;;;;;;;15.77;56.90;98128.63;6896422;28;20226;-79
2021/05/01 15:48:14;;;;;;;43.50;33.80;;;;;;;16.20;56.83;98131.25;6900192;28;20612;-80
2021/05/01 15:51:35;;;;;;;39.47;32.20;;;;;;;16.10;56.62;98106.66;6898690;28;20229;-80
2021/05/01 15:54:56;;;;;;;41.43;32.40;;;;;;;16.27;56.45;98125.63;6898760;28;20212;-80
2021/05/01 15:58:19;;;;;;;36.50;30.83;;;;;;;16.19;56.61;98131.50;6898770;28;20207;-80
2021/05/01 16:01:41;;;;;;;36.43;29.60;;;;;;;15.83;56.41;98132.22;6897278;28;20229;-81
2021/05/01 16:05:06;;;;;;;38.57;30.50;;;;;;;15.95;56.91;98101.09;6897820;28;20252;-81
2021/05/01 16:08:27;;;;;;;37.40;31.90;;;;;;;15.82;57.20;98125.13;6895595;28;20568;-79
2021/05/01 16:11:48;;;;;;;39.17;31.10;;;;;;;15.57;57.37;98079.47;6874724;28;20231;-80
2021/05/01 16:15:12;;;;;;;38.13;31.60;;;;;;;16.02;57.11;98122.63;6870026;28;20207;-80
2021/05/01 16:18:33;;;;;;;41.53;33.30;;;;;;;15.95;56.48;98124.72;6869966;28;20211;-79
2021/05/01 16:21:54;;;;;;;41.53;33.93;;;;;;;15.93;56.77;98124.97;6876761;28;20247;-79
2021/05/01 16:25:18;;;;;;;47.27;35.30;;;;;;;16.07;57.29;98111.81;6891458;28;20739;-79
2021/05/01 16:28:44;;;;;;;40.60;32.53;;;;;;;16.01;56.77;98132.69;6896505;28;20663;-80
2021/05/01 16:32:07;;;;;;;45.07;34.93;;;;;;;16.19;57.84;98118.75;6895659;28;20235;-80
2021/05/01 16:35:29;;;;;;;43.67;35.30;;;;;;;16.03;58.13;98137.84;6881071;28;20260;-80
2021/05/01 16:38:52;;;;;;;46.83;35.90;;;;;;;15.91;57.90;98137.19;6891191;28;20206;-80
2021/05/01 16:42:14;;;;;;;42.10;33.70;;;;;;;15.67;57.90;98133.09;6893440;28;20229;-80
2021/05/01 16:45:35;;;;;;;47.73;34.90;;;;;;;15.80;57.96;98136.25;6895556;28;20209;-80
2021/05/01 16:48:57;;;;;;;43.80;34.83;;;;;;;15.53;58.01;98101.97;6896677;28;20216;-80
2021/05/01 16:52:18;;;;;;;47.13;37.37;;;;;;;15.55;58.16;98127.81;6895954;28;20252;-81
2021/05/01 16:55:39;;;;;;;45.40;36.03;;;;;;;15.44;58.08;98133.34;6897049;28;20215;-80
2021/05/01 16:59:01;;;;;;;48.10;34.93;;;;;;;15.25;58.55;98085.81;6896146;28;20214;-80
2021/05/01 17:02:22;;;;;;;46.23;35.63;;;;;;;15.58;58.55;98138.16;6895684;28;20637;-80
2021/05/01 17:05:45;;;;;;;45.10;36.10;;;;;;;15.33;58.96;98137.84;6894460;28;20200;-80
2021/05/01 17:09:06;;;;;;;51.57;39.27;;;;;;;15.49;59.40;98130.69;6884887;28;20697;-80
2021/05/01 17:12:28;;;;;;;48.63;39.33;;;;;;;15.42;58.82;98135.50;6894513;28;20247;-80
2021/05/01 17:15:49;;;;;;;46.17;36.33;;;;;;;15.28;59.19;98142.34;6899690;28;20199;-80
2021/05/01 17:19:10;;;;;;;50.30;38.07;;;;;;;15.17;59.64;98135.13;6906042;28;20218;-80
2021/05/01 17:22:32;;;;;;;56.57;41.03;;;;;;;15.18;60.69;98125.91;6902377;28;20614;-80
2021/05/01 17:25:54;;;;;;;51.37;39.87;;;;;;;15.17;60.38;98125.06;6901156;28;20301;-80
2021/05/01 17:29:15;;;;;;;51.77;37.77;;;;;;;15.34;60.18;98134.03;6901286;28;20217;-80
2021/05/01 17:32:38;;;;;;;45.83;36.97;;;;;;;15.25;60.19;98129.25;6900046;28;21345;-80
2021/05/01 17:35:59;;;;;;;54.87;40.13;;;;;;;15.26;60.58;98126.31;6899932;28;20215;-79
2021/05/01 17:39:22;;;;;;;57.27;39.73;;;;;;;15.26;60.47;98133.63;6900983;28;20199;-79
2021/05/01 17:42:43;;;;;;;56.40;40.73;;;;;;;15.17;61.07;98124.28;6900802;28;20601;-80
2021/05/01 17:46:04;;;;;;;53.63;40.83;;;;;;;15.14;60.94;98119.31;6901791;28;20212;-80
2021/05/01 17:49:26;;;;;;;50.20;38.90;;;;;;;15.17;60.84;98129.72;6900850;28;20281;-80
2021/05/01 17:52:47;;;;;;;64.93;43.80;;;;;;;15.27;61.27;98143.44;6894975;28;20233;-80
2021/05/01 17:56:09;;;;;;;53.87;40.57;;;;;;;15.21;60.95;98139.81;6874070;28;20200;-80
2021/05/01 17:59:30;;;;;;;53.63;40.87;;;;;;;15.17;61.33;98135.13;6892696;28;20211;-80
2021/05/01 18:02:52;;;;;;;57.20;42.63;;;;;;;15.24;61.13;98138.50;6901336;28;20233;-80
2021/05/01 18:06:14;;;;;;;54.80;41.87;;;;;;;14.67;61.48;98096.38;6899722;28;20210;-80
2021/05/01 18:09:35;;;;;;;57.40;42.27;;;;;;;15.12;61.44;98137.78;6900110;28;20213;-80
2021/05/01 18:12:58;;;;;;;61.57;44.80;;;;;;;15.12;61.54;98138.63;6888523;28;20225;-80
2021/05/01 18:16:21;;;;;;;57.17;41.57;;;;;;;14.96;61.10;98115.03;6874329;28;20312;-80
2021/05/01 18:19:42;;;;;;;61.23;42.77;;;;;;;14.73;61.93;98145.06;6874645;28;20209;-80
2021/05/01 18:23:03;;;;;;;61.67;43.47;;;;;;;14.83;62.37;98147.94;6876022;28;20235;-80
2021/05/01 18:26:26;;;;;;;60.00;44.23;;;;;;;15.05;61.94;98158.84;6877627;28;20730;-80
2021/05/01 18:29:49;;;;;;;64.27;44.70;;;;;;;15.10;61.76;98139.94;6900713;28;20211;-81
2021/05/01 18:33:12;;;;;;;63.73;44.13;;;;;;;15.13;61.47;98142.13;6901580;28;20229;-80
2021/05/01 18:36:33;;;;;;;70.23;45.47;;;;;;;14.92;61.96;98151.06;6896907;28;20296;-80
2021/05/01 18:39:57;;;;;;;62.67;43.80;;;;;;;14.57;61.67;98102.47;6900443;28;20245;-80
2021/05/01 18:43:18;;;;;;;59.40;43.90;;;;;;;15.16;61.36;98145.16;6899661;28;20228;-80
2021/05/01 18:46:40;;;;;;;62.07;44.00;;;;;;;14.77;61.92;98143.50;6902815;28;20223;-80
2021/05/01 18:50:01;;;;;;;66.17;42.73;;;;;;;14.74;61.80;98146.69;6902959;28;20566;-82
2021/05/01 18:53:25;;;;;;;59.87;43.40;;;;;;;14.73;62.04;98147.78;6899428;28;20224;-81
2021/05/01 18:56:47;;;;;;;64.30;44.17;;;;;;;14.93;61.98;98147.28;6897662;28;20221;-80
2021/05/01 19:00:10;;;;;;;59.00;43.73;;;;;;;15.02;61.50;98149.31;6899470;28;20201;-81
2021/05/01 19:03:32;;;;;;;63.57;43.70;;;;;;;14.85;61.49;98143.06;6899189;28;20244;-81